sensor_id;sensor_type;location;lat;lon;timestamp;P1;durP1;ratioP1;P2;durP2;ratioP2
24335;SDS011;33098;52.400;16.880;2022-11-12T00:02:55;11.00;;;6.80;;
24335;SDS011;33098;52.400;16.880;2022-11-12T00:05:41;13.40;;;7.30;;
24335;SDS011;33098;52.400;16.880;2022-11-12T00:08:27;14.70;;;7.10;;
24335;SDS011;33098;52.400;16.880;2022-11-12T00:11:12;15.90;;;7.90;;
24335;SDS011;33098;52.400;16.880;2022-11-12T00:13:58;13.50;;;7.20;;
24335;SDS011;33098;52.400;16.880;2022-11-12T00:16:43;12.80;;;7.40;;
24335;SDS011;33098;52.400;16.880;2022-11-12T00:19:28;12.70;;;7.00;;
24335;SDS011;33098;52.400;16.880;2022-11-12T00:22:14;13.50;;;6.90;;
24335;SDS011;33098;52.400;16.880;2022-11-12T00:24:59;14.70;;;7.50;;
24335;SDS011;33098;52.400;16.880;2022-11-12T00:27:45;13.70;;;7.10;;
24335;SDS011;33098;52.400;16.880;2022-11-12T00:30:30;11.40;;;7.40;;
24335;SDS011;33098;52.400;16.880;2022-11-12T00:33:18;14.20;;;7.50;;
24335;SDS011;33098;52.400;16.880;2022-11-12T00:36:04;12.40;;;6.60;;
24335;SDS011;33098;52.400;16.880;2022-11-12T00:38:50;11.70;;;6.60;;
24335;SDS011;33098;52.400;16.880;2022-11-12T00:41:36;13.70;;;7.20;;
24335;SDS011;33098;52.400;16.880;2022-11-12T00:44:21;12.60;;;6.90;;
24335;SDS011;33098;52.400;16.880;2022-11-12T00:47:07;13.20;;;7.00;;
24335;SDS011;33098;52.400;16.880;2022-11-12T00:49:52;11.30;;;6.50;;
24335;SDS011;33098;52.400;16.880;2022-11-12T00:52:38;11.70;;;6.50;;
24335;SDS011;33098;52.400;16.880;2022-11-12T00:55:23;11.70;;;6.40;;
24335;SDS011;33098;52.400;16.880;2022-11-12T00:58:11;10.80;;;6.60;;
24335;SDS011;33098;52.400;16.880;2022-11-12T01:00:57;11.90;;;6.60;;
24335;SDS011;33098;52.400;16.880;2022-11-12T01:03:48;12.70;;;6.80;;
24335;SDS011;33098;52.400;16.880;2022-11-12T01:06:33;10.80;;;6.50;;
24335;SDS011;33098;52.400;16.880;2022-11-12T01:09:19;11.60;;;6.70;;
24335;SDS011;33098;52.400;16.880;2022-11-12T01:12:04;17.10;;;6.70;;
24335;SDS011;33098;52.400;16.880;2022-11-12T01:14:49;10.30;;;6.10;;
24335;SDS011;33098;52.400;16.880;2022-11-12T01:17:38;10.60;;;6.30;;
24335;SDS011;33098;52.400;16.880;2022-11-12T01:20:23;11.50;;;6.30;;
24335;SDS011;33098;52.400;16.880;2022-11-12T01:23:09;12.40;;;6.60;;
24335;SDS011;33098;52.400;16.880;2022-11-12T01:25:54;9.90;;;6.60;;
24335;SDS011;33098;52.400;16.880;2022-11-12T01:28:40;10.50;;;6.20;;
24335;SDS011;33098;52.400;16.880;2022-11-12T01:31:28;11.10;;;6.30;;
24335;SDS011;33098;52.400;16.880;2022-11-12T01:34:15;10.70;;;6.10;;
24335;SDS011;33098;52.400;16.880;2022-11-12T01:37:01;10.30;;;6.10;;
24335;SDS011;33098;52.400;16.880;2022-11-12T01:39:46;12.30;;;6.40;;
24335;SDS011;33098;52.400;16.880;2022-11-12T01:42:31;11.90;;;6.50;;
24335;SDS011;33098;52.400;16.880;2022-11-12T01:45:17;11.40;;;6.60;;
24335;SDS011;33098;52.400;16.880;2022-11-12T01:48:05;13.80;;;6.80;;
24335;SDS011;33098;52.400;16.880;2022-11-12T01:50:56;9.40;;;6.30;;
24335;SDS011;33098;52.400;16.880;2022-11-12T01:53:43;14.20;;;7.00;;
24335;SDS011;33098;52.400;16.880;2022-11-12T01:56:34;11.50;;;6.50;;
24335;SDS011;33098;52.400;16.880;2022-11-12T01:59:22;12.60;;;6.50;;
24335;SDS011;33098;52.400;16.880;2022-11-12T02:02:12;12.00;;;6.30;;
24335;SDS011;33098;52.400;16.880;2022-11-12T02:04:58;12.40;;;6.60;;
24335;SDS011;33098;52.400;16.880;2022-11-12T02:07:44;11.40;;;6.60;;
24335;SDS011;33098;52.400;16.880;2022-11-12T02:10:30;11.20;;;6.50;;
24335;SDS011;33098;52.400;16.880;2022-11-12T02:13:16;12.90;;;6.60;;
24335;SDS011;33098;52.400;16.880;2022-11-12T02:16:21;10.60;;;5.90;;
24335;SDS011;33098;52.400;16.880;2022-11-12T02:19:08;13.30;;;6.40;;
24335;SDS011;33098;52.400;16.880;2022-11-12T02:21:56;10.30;;;5.90;;
24335;SDS011;33098;52.400;16.880;2022-11-12T02:24:42;11.90;;;6.30;;
24335;SDS011;33098;52.400;16.880;2022-11-12T02:27:27;9.90;;;6.00;;
24335;SDS011;33098;52.400;16.880;2022-11-12T02:30:13;12.50;;;6.30;;
24335;SDS011;33098;52.400;16.880;2022-11-12T02:32:58;10.80;;;6.30;;
24335;SDS011;33098;52.400;16.880;2022-11-12T02:35:44;12.10;;;6.80;;
24335;SDS011;33098;52.400;16.880;2022-11-12T02:38:29;12.20;;;6.50;;
24335;SDS011;33098;52.400;16.880;2022-11-12T02:41:14;10.30;;;6.70;;
24335;SDS011;33098;52.400;16.880;2022-11-12T02:44:00;12.60;;;6.30;;
24335;SDS011;33098;52.400;16.880;2022-11-12T02:46:51;9.40;;;6.40;;
24335;SDS011;33098;52.400;16.880;2022-11-12T02:49:37;10.30;;;6.10;;
24335;SDS011;33098;52.400;16.880;2022-11-12T02:52:25;8.60;;;6.10;;
24335;SDS011;33098;52.400;16.880;2022-11-12T02:55:11;11.00;;;6.40;;
24335;SDS011;33098;52.400;16.880;2022-11-12T02:57:56;12.40;;;6.00;;
24335;SDS011;33098;52.400;16.880;2022-11-12T03:00:43;8.20;;;5.70;;
24335;SDS011;33098;52.400;16.880;2022-11-12T03:03:28;7.70;;;5.80;;
24335;SDS011;33098;52.400;16.880;2022-11-12T03:06:13;11.10;;;6.50;;
24335;SDS011;33098;52.400;16.880;2022-11-12T03:09:01;12.30;;;6.50;;
24335;SDS011;33098;52.400;16.880;2022-11-12T03:11:46;9.90;;;5.80;;
24335;SDS011;33098;52.400;16.880;2022-11-12T03:14:31;9.90;;;6.10;;
24335;SDS011;33098;52.400;16.880;2022-11-12T03:17:17;9.90;;;6.10;;
24335;SDS011;33098;52.400;16.880;2022-11-12T03:20:02;11.30;;;6.10;;
24335;SDS011;33098;52.400;16.880;2022-11-12T03:22:55;8.60;;;5.60;;
24335;SDS011;33098;52.400;16.880;2022-11-12T03:25:43;9.50;;;5.30;;
24335;SDS011;33098;52.400;16.880;2022-11-12T03:28:31;11.00;;;5.90;;
24335;SDS011;33098;52.400;16.880;2022-11-12T03:31:17;9.80;;;5.80;;
24335;SDS011;33098;52.400;16.880;2022-11-12T03:34:02;12.60;;;5.70;;
24335;SDS011;33098;52.400;16.880;2022-11-12T03:36:48;8.40;;;5.40;;
24335;SDS011;33098;52.400;16.880;2022-11-12T03:39:34;9.70;;;5.40;;
24335;SDS011;33098;52.400;16.880;2022-11-12T03:42:23;10.00;;;6.00;;
24335;SDS011;33098;52.400;16.880;2022-11-12T03:45:08;10.10;;;5.40;;
24335;SDS011;33098;52.400;16.880;2022-11-12T03:47:54;9.20;;;5.80;;
24335;SDS011;33098;52.400;16.880;2022-11-12T03:50:41;13.00;;;5.60;;
24335;SDS011;33098;52.400;16.880;2022-11-12T03:53:26;9.70;;;5.50;;
24335;SDS011;33098;52.400;16.880;2022-11-12T03:56:14;9.60;;;5.40;;
24335;SDS011;33098;52.400;16.880;2022-11-12T03:59:03;9.60;;;5.60;;
24335;SDS011;33098;52.400;16.880;2022-11-12T04:01:48;8.30;;;5.80;;
24335;SDS011;33098;52.400;16.880;2022-11-12T04:04:33;9.10;;;5.50;;
24335;SDS011;33098;52.400;16.880;2022-11-12T04:07:40;10.70;;;5.70;;
24335;SDS011;33098;52.400;16.880;2022-11-12T04:10:44;8.30;;;4.90;;
24335;SDS011;33098;52.400;16.880;2022-11-12T04:13:30;9.60;;;5.30;;
24335;SDS011;33098;52.400;16.880;2022-11-12T04:16:17;13.80;;;5.40;;
24335;SDS011;33098;52.400;16.880;2022-11-12T04:19:23;8.90;;;5.10;;
24335;SDS011;33098;52.400;16.880;2022-11-12T04:22:27;9.40;;;5.20;;
24335;SDS011;33098;52.400;16.880;2022-11-12T04:25:12;8.70;;;5.50;;
24335;SDS011;33098;52.400;16.880;2022-11-12T04:28:17;8.30;;;5.20;;
24335;SDS011;33098;52.400;16.880;2022-11-12T04:31:02;8.20;;;5.40;;
24335;SDS011;33098;52.400;16.880;2022-11-12T04:33:47;8.70;;;5.20;;
24335;SDS011;33098;52.400;16.880;2022-11-12T04:36:33;9.90;;;5.60;;
24335;SDS011;33098;52.400;16.880;2022-11-12T04:39:18;7.80;;;5.80;;
24335;SDS011;33098;52.400;16.880;2022-11-12T04:42:04;10.10;;;5.40;;
24335;SDS011;33098;52.400;16.880;2022-11-12T04:45:09;6.70;;;5.20;;
24335;SDS011;33098;52.400;16.880;2022-11-12T04:47:54;9.30;;;5.60;;
24335;SDS011;33098;52.400;16.880;2022-11-12T04:50:41;9.20;;;5.30;;
24335;SDS011;33098;52.400;16.880;2022-11-12T04:53:29;9.80;;;5.70;;
24335;SDS011;33098;52.400;16.880;2022-11-12T04:56:15;9.10;;;5.30;;
24335;SDS011;33098;52.400;16.880;2022-11-12T04:59:00;6.40;;;5.00;;
24335;SDS011;33098;52.400;16.880;2022-11-12T05:01:45;7.90;;;5.40;;
24335;SDS011;33098;52.400;16.880;2022-11-12T05:04:31;14.70;;;5.50;;
24335;SDS011;33098;52.400;16.880;2022-11-12T05:07:16;9.30;;;5.30;;
24335;SDS011;33098;52.400;16.880;2022-11-12T05:10:02;9.10;;;5.90;;
24335;SDS011;33098;52.400;16.880;2022-11-12T05:12:47;9.30;;;6.50;;
24335;SDS011;33098;52.400;16.880;2022-11-12T05:15:33;9.90;;;6.40;;
24335;SDS011;33098;52.400;16.880;2022-11-12T05:18:18;15.50;;;8.00;;
24335;SDS011;33098;52.400;16.880;2022-11-12T05:21:04;10.50;;;6.80;;
24335;SDS011;33098;52.400;16.880;2022-11-12T05:24:09;11.40;;;7.40;;
24335;SDS011;33098;52.400;16.880;2022-11-12T05:26:55;11.50;;;7.00;;
24335;SDS011;33098;52.400;16.880;2022-11-12T05:29:42;12.70;;;6.80;;
24335;SDS011;33098;52.400;16.880;2022-11-12T05:32:28;13.50;;;7.30;;
24335;SDS011;33098;52.400;16.880;2022-11-12T05:35:14;10.20;;;6.60;;
24335;SDS011;33098;52.400;16.880;2022-11-12T05:37:59;12.70;;;6.70;;
24335;SDS011;33098;52.400;16.880;2022-11-12T05:40:45;10.30;;;6.50;;
24335;SDS011;33098;52.400;16.880;2022-11-12T05:43:30;9.40;;;5.70;;
24335;SDS011;33098;52.400;16.880;2022-11-12T05:46:16;8.10;;;5.80;;
24335;SDS011;33098;52.400;16.880;2022-11-12T05:49:01;9.60;;;6.00;;
24335;SDS011;33098;52.400;16.880;2022-11-12T05:51:47;7.60;;;5.30;;
24335;SDS011;33098;52.400;16.880;2022-11-12T05:54:32;7.90;;;5.60;;
24335;SDS011;33098;52.400;16.880;2022-11-12T05:57:17;8.30;;;5.50;;
24335;SDS011;33098;52.400;16.880;2022-11-12T06:00:03;12.60;;;5.40;;
24335;SDS011;33098;52.400;16.880;2022-11-12T06:02:49;9.10;;;6.00;;
24335;SDS011;33098;52.400;16.880;2022-11-12T06:05:36;8.70;;;5.50;;
24335;SDS011;33098;52.400;16.880;2022-11-12T06:08:22;9.60;;;6.10;;
24335;SDS011;33098;52.400;16.880;2022-11-12T06:11:08;10.20;;;6.10;;
24335;SDS011;33098;52.400;16.880;2022-11-12T06:13:53;9.90;;;6.20;;
24335;SDS011;33098;52.400;16.880;2022-11-12T06:16:41;11.20;;;5.80;;
24335;SDS011;33098;52.400;16.880;2022-11-12T06:19:27;8.40;;;5.10;;
24335;SDS011;33098;52.400;16.880;2022-11-12T06:22:12;9.60;;;5.50;;
24335;SDS011;33098;52.400;16.880;2022-11-12T06:24:57;8.70;;;5.60;;
24335;SDS011;33098;52.400;16.880;2022-11-12T06:27:42;10.30;;;5.90;;
24335;SDS011;33098;52.400;16.880;2022-11-12T06:30:27;9.60;;;5.80;;
24335;SDS011;33098;52.400;16.880;2022-11-12T06:33:13;9.50;;;5.30;;
24335;SDS011;33098;52.400;16.880;2022-11-12T06:35:59;7.60;;;4.80;;
24335;SDS011;33098;52.400;16.880;2022-11-12T06:38:47;7.90;;;5.40;;
24335;SDS011;33098;52.400;16.880;2022-11-12T06:41:32;9.90;;;5.20;;
24335;SDS011;33098;52.400;16.880;2022-11-12T06:44:18;9.80;;;5.50;;
24335;SDS011;33098;52.400;16.880;2022-11-12T06:47:07;12.20;;;5.70;;
24335;SDS011;33098;52.400;16.880;2022-11-12T06:49:56;8.80;;;5.20;;
24335;SDS011;33098;52.400;16.880;2022-11-12T06:52:42;7.80;;;5.10;;
24335;SDS011;33098;52.400;16.880;2022-11-12T06:55:27;8.10;;;5.10;;
24335;SDS011;33098;52.400;16.880;2022-11-12T06:58:12;9.00;;;4.90;;
24335;SDS011;33098;52.400;16.880;2022-11-12T07:01:02;6.90;;;5.00;;
24335;SDS011;33098;52.400;16.880;2022-11-12T07:03:52;8.20;;;5.00;;
24335;SDS011;33098;52.400;16.880;2022-11-12T07:06:37;8.60;;;5.80;;
24335;SDS011;33098;52.400;16.880;2022-11-12T07:09:22;10.70;;;5.90;;
24335;SDS011;33098;52.400;16.880;2022-11-12T07:12:08;10.20;;;5.30;;
24335;SDS011;33098;52.400;16.880;2022-11-12T07:14:53;8.10;;;5.20;;
24335;SDS011;33098;52.400;16.880;2022-11-12T07:17:43;9.50;;;5.60;;
24335;SDS011;33098;52.400;16.880;2022-11-12T07:20:29;7.80;;;5.40;;
24335;SDS011;33098;52.400;16.880;2022-11-12T07:23:15;10.50;;;6.30;;
24335;SDS011;33098;52.400;16.880;2022-11-12T07:28:51;12.90;;;6.90;;
24335;SDS011;33098;52.400;16.880;2022-11-12T07:31:51;10.50;;;6.50;;
24335;SDS011;33098;52.400;16.880;2022-11-12T07:34:37;12.00;;;6.30;;
24335;SDS011;33098;52.400;16.880;2022-11-12T07:37:22;12.20;;;6.50;;
24335;SDS011;33098;52.400;16.880;2022-11-12T07:40:08;9.90;;;6.50;;
24335;SDS011;33098;52.400;16.880;2022-11-12T07:42:54;11.50;;;6.60;;
24335;SDS011;33098;52.400;16.880;2022-11-12T07:45:39;12.50;;;7.40;;
24335;SDS011;33098;52.400;16.880;2022-11-12T07:48:25;10.50;;;7.10;;
24335;SDS011;33098;52.400;16.880;2022-11-12T07:51:18;11.80;;;7.10;;
24335;SDS011;33098;52.400;16.880;2022-11-12T07:54:05;10.30;;;6.60;;
24335;SDS011;33098;52.400;16.880;2022-11-12T07:56:51;8.90;;;5.90;;
24335;SDS011;33098;52.400;16.880;2022-11-12T07:59:36;9.50;;;6.20;;
24335;SDS011;33098;52.400;16.880;2022-11-12T08:02:21;10.20;;;6.20;;
24335;SDS011;33098;52.400;16.880;2022-11-12T08:05:07;12.20;;;6.10;;
24335;SDS011;33098;52.400;16.880;2022-11-12T08:07:54;11.20;;;6.70;;
24335;SDS011;33098;52.400;16.880;2022-11-12T08:10:40;10.20;;;6.70;;
24335;SDS011;33098;52.400;16.880;2022-11-12T08:13:26;9.20;;;6.40;;
24335;SDS011;33098;52.400;16.880;2022-11-12T08:16:11;12.00;;;6.70;;
24335;SDS011;33098;52.400;16.880;2022-11-12T08:18:57;10.80;;;6.60;;
24335;SDS011;33098;52.400;16.880;2022-11-12T08:21:42;11.10;;;6.50;;
24335;SDS011;33098;52.400;16.880;2022-11-12T08:24:28;11.00;;;7.20;;
24335;SDS011;33098;52.400;16.880;2022-11-12T08:27:13;11.80;;;7.20;;
24335;SDS011;33098;52.400;16.880;2022-11-12T08:30:02;11.00;;;7.30;;
24335;SDS011;33098;52.400;16.880;2022-11-12T08:32:58;10.90;;;7.50;;
24335;SDS011;33098;52.400;16.880;2022-11-12T08:35:46;12.00;;;7.60;;
24335;SDS011;33098;52.400;16.880;2022-11-12T08:38:31;11.90;;;7.10;;
24335;SDS011;33098;52.400;16.880;2022-11-12T08:41:17;14.00;;;7.40;;
24335;SDS011;33098;52.400;16.880;2022-11-12T08:44:02;11.10;;;7.50;;
24335;SDS011;33098;52.400;16.880;2022-11-12T08:46:49;10.30;;;6.50;;
24335;SDS011;33098;52.400;16.880;2022-11-12T08:49:37;11.70;;;6.70;;
24335;SDS011;33098;52.400;16.880;2022-11-12T08:55:11;12.60;;;7.50;;
24335;SDS011;33098;52.400;16.880;2022-11-12T08:57:56;12.70;;;7.80;;
24335;SDS011;33098;52.400;16.880;2022-11-12T09:00:48;11.80;;;7.70;;
24335;SDS011;33098;52.400;16.880;2022-11-12T09:03:36;11.60;;;7.60;;
24335;SDS011;33098;52.400;16.880;2022-11-12T09:06:22;13.60;;;8.10;;
24335;SDS011;33098;52.400;16.880;2022-11-12T09:09:07;14.60;;;7.60;;
24335;SDS011;33098;52.400;16.880;2022-11-12T09:11:53;12.30;;;7.90;;
24335;SDS011;33098;52.400;16.880;2022-11-12T09:14:41;12.90;;;7.60;;
24335;SDS011;33098;52.400;16.880;2022-11-12T09:17:26;12.10;;;7.70;;
24335;SDS011;33098;52.400;16.880;2022-11-12T09:20:13;14.00;;;8.50;;
24335;SDS011;33098;52.400;16.880;2022-11-12T09:22:59;15.40;;;8.50;;
24335;SDS011;33098;52.400;16.880;2022-11-12T09:25:53;12.30;;;7.90;;
24335;SDS011;33098;52.400;16.880;2022-11-12T09:28:40;14.10;;;8.70;;
24335;SDS011;33098;52.400;16.880;2022-11-12T09:31:25;14.80;;;9.40;;
24335;SDS011;33098;52.400;16.880;2022-11-12T09:34:11;15.90;;;9.60;;
24335;SDS011;33098;52.400;16.880;2022-11-12T09:36:56;17.10;;;9.30;;
24335;SDS011;33098;52.400;16.880;2022-11-12T09:39:41;14.50;;;9.80;;
24335;SDS011;33098;52.400;16.880;2022-11-12T09:42:27;15.20;;;9.40;;
24335;SDS011;33098;52.400;16.880;2022-11-12T09:48:22;17.10;;;11.00;;
24335;SDS011;33098;52.400;16.880;2022-11-12T09:51:12;14.40;;;10.20;;
24335;SDS011;33098;52.400;16.880;2022-11-12T09:54:18;17.20;;;11.20;;
24335;SDS011;33098;52.400;16.880;2022-11-12T09:57:10;19.30;;;12.10;;
24335;SDS011;33098;52.400;16.880;2022-11-12T09:59:57;17.80;;;11.20;;
24335;SDS011;33098;52.400;16.880;2022-11-12T10:06:23;19.40;;;12.90;;
24335;SDS011;33098;52.400;16.880;2022-11-12T10:09:19;18.10;;;12.60;;
24335;SDS011;33098;52.400;16.880;2022-11-12T10:12:26;18.60;;;13.40;;
24335;SDS011;33098;52.400;16.880;2022-11-12T10:25:11;21.30;;;15.10;;
24335;SDS011;33098;52.400;16.880;2022-11-12T10:27:57;23.60;;;14.50;;
24335;SDS011;33098;52.400;16.880;2022-11-12T10:30:46;19.80;;;14.10;;
24335;SDS011;33098;52.400;16.880;2022-11-12T10:33:32;21.10;;;15.00;;
24335;SDS011;33098;52.400;16.880;2022-11-12T10:39:29;19.70;;;14.20;;
24335;SDS011;33098;52.400;16.880;2022-11-12T10:42:22;19.20;;;13.20;;
24335;SDS011;33098;52.400;16.880;2022-11-12T10:45:17;19.60;;;13.00;;
24335;SDS011;33098;52.400;16.880;2022-11-12T10:48:04;19.20;;;12.20;;
24335;SDS011;33098;52.400;16.880;2022-11-12T10:51:03;21.80;;;13.60;;
24335;SDS011;33098;52.400;16.880;2022-11-12T10:57:22;17.30;;;12.60;;
24335;SDS011;33098;52.400;16.880;2022-11-12T11:02:57;17.10;;;13.20;;
24335;SDS011;33098;52.400;16.880;2022-11-12T11:05:53;19.50;;;12.70;;
24335;SDS011;33098;52.400;16.880;2022-11-12T11:11:57;18.70;;;13.10;;
24335;SDS011;33098;52.400;16.880;2022-11-12T11:14:43;18.30;;;12.90;;
24335;SDS011;33098;52.400;16.880;2022-11-12T11:17:28;18.10;;;12.60;;
24335;SDS011;33098;52.400;16.880;2022-11-12T11:23:33;22.90;;;14.40;;
24335;SDS011;33098;52.400;16.880;2022-11-12T11:33:00;18.90;;;13.40;;
24335;SDS011;33098;52.400;16.880;2022-11-12T11:39:17;18.90;;;12.70;;
24335;SDS011;33098;52.400;16.880;2022-11-12T11:42:17;21.10;;;13.00;;
24335;SDS011;33098;52.400;16.880;2022-11-12T11:45:30;21.00;;;13.70;;
24335;SDS011;33098;52.400;16.880;2022-11-12T11:57:36;20.40;;;13.30;;
24335;SDS011;33098;52.400;16.880;2022-11-12T12:00:38;20.10;;;13.30;;
24335;SDS011;33098;52.400;16.880;2022-11-12T12:06:59;19.40;;;13.60;;
24335;SDS011;33098;52.400;16.880;2022-11-12T12:12:58;19.90;;;14.00;;
24335;SDS011;33098;52.400;16.880;2022-11-12T12:16:02;22.20;;;15.50;;
24335;SDS011;33098;52.400;16.880;2022-11-12T12:22:03;20.90;;;13.60;;
24335;SDS011;33098;52.400;16.880;2022-11-12T12:24:56;22.50;;;14.30;;
24335;SDS011;33098;52.400;16.880;2022-11-12T12:28:01;19.40;;;13.80;;
24335;SDS011;33098;52.400;16.880;2022-11-12T12:33:49;19.90;;;13.50;;
24335;SDS011;33098;52.400;16.880;2022-11-12T12:36:39;21.10;;;14.10;;
24335;SDS011;33098;52.400;16.880;2022-11-12T12:39:31;23.50;;;14.20;;
24335;SDS011;33098;52.400;16.880;2022-11-12T12:42:25;25.90;;;16.10;;
24335;SDS011;33098;52.400;16.880;2022-11-12T12:48:12;23.80;;;15.70;;
24335;SDS011;33098;52.400;16.880;2022-11-12T12:51:01;25.00;;;15.70;;
24335;SDS011;33098;52.400;16.880;2022-11-12T12:53:47;24.00;;;15.00;;
24335;SDS011;33098;52.400;16.880;2022-11-12T12:56:42;23.50;;;15.90;;
24335;SDS011;33098;52.400;16.880;2022-11-12T12:59:30;24.30;;;15.00;;
24335;SDS011;33098;52.400;16.880;2022-11-12T13:02:21;23.80;;;15.20;;
24335;SDS011;33098;52.400;16.880;2022-11-12T13:05:21;23.10;;;14.90;;
24335;SDS011;33098;52.400;16.880;2022-11-12T13:08:09;26.90;;;15.80;;
24335;SDS011;33098;52.400;16.880;2022-11-12T13:10:58;24.40;;;15.90;;
24335;SDS011;33098;52.400;16.880;2022-11-12T13:13:43;22.40;;;14.80;;
24335;SDS011;33098;52.400;16.880;2022-11-12T13:25:27;24.80;;;15.80;;
24335;SDS011;33098;52.400;16.880;2022-11-12T13:28:14;29.60;;;18.10;;
24335;SDS011;33098;52.400;16.880;2022-11-12T13:31:02;25.30;;;17.20;;
24335;SDS011;33098;52.400;16.880;2022-11-12T13:33:48;29.30;;;17.60;;
24335;SDS011;33098;52.400;16.880;2022-11-12T13:36:34;30.60;;;18.10;;
24335;SDS011;33098;52.400;16.880;2022-11-12T13:39:19;26.60;;;17.90;;
24335;SDS011;33098;52.400;16.880;2022-11-12T13:42:10;31.10;;;17.60;;
24335;SDS011;33098;52.400;16.880;2022-11-12T13:45:17;28.60;;;17.30;;
24335;SDS011;33098;52.400;16.880;2022-11-12T13:48:06;27.90;;;18.00;;
24335;SDS011;33098;52.400;16.880;2022-11-12T13:51:05;33.10;;;19.60;;
24335;SDS011;33098;52.400;16.880;2022-11-12T13:53:57;32.10;;;18.80;;
24335;SDS011;33098;52.400;16.880;2022-11-12T13:56:42;26.50;;;16.80;;
24335;SDS011;33098;52.400;16.880;2022-11-12T13:59:28;29.50;;;17.80;;
24335;SDS011;33098;52.400;16.880;2022-11-12T14:02:21;30.00;;;18.40;;
24335;SDS011;33098;52.400;16.880;2022-11-12T14:05:13;31.50;;;19.40;;
24335;SDS011;33098;52.400;16.880;2022-11-12T14:14:31;32.50;;;20.40;;
24335;SDS011;33098;52.400;16.880;2022-11-12T14:17:20;33.50;;;20.90;;
24335;SDS011;33098;52.400;16.880;2022-11-12T14:20:36;29.50;;;19.70;;
24335;SDS011;33098;52.400;16.880;2022-11-12T14:23:23;28.10;;;17.50;;
24335;SDS011;33098;52.400;16.880;2022-11-12T14:26:10;31.10;;;19.50;;
24335;SDS011;33098;52.400;16.880;2022-11-12T14:28:57;26.70;;;18.00;;
24335;SDS011;33098;52.400;16.880;2022-11-12T14:31:43;28.60;;;18.60;;
24335;SDS011;33098;52.400;16.880;2022-11-12T14:34:29;27.20;;;17.60;;
24335;SDS011;33098;52.400;16.880;2022-11-12T14:37:36;29.10;;;17.90;;
24335;SDS011;33098;52.400;16.880;2022-11-12T14:40:23;29.80;;;18.60;;
24335;SDS011;33098;52.400;16.880;2022-11-12T14:46:25;31.60;;;18.70;;
24335;SDS011;33098;52.400;16.880;2022-11-12T14:49:21;29.50;;;18.30;;
24335;SDS011;33098;52.400;16.880;2022-11-12T14:52:10;24.80;;;16.40;;
24335;SDS011;33098;52.400;16.880;2022-11-12T14:55:05;27.30;;;17.30;;
24335;SDS011;33098;52.400;16.880;2022-11-12T14:57:55;25.30;;;16.90;;
24335;SDS011;33098;52.400;16.880;2022-11-12T15:00:44;28.00;;;17.30;;
24335;SDS011;33098;52.400;16.880;2022-11-12T15:03:34;29.50;;;19.00;;
24335;SDS011;33098;52.400;16.880;2022-11-12T15:06:29;37.20;;;20.90;;
24335;SDS011;33098;52.400;16.880;2022-11-12T15:09:34;35.20;;;20.40;;
24335;SDS011;33098;52.400;16.880;2022-11-12T15:12:31;31.40;;;18.30;;
24335;SDS011;33098;52.400;16.880;2022-11-12T15:15:19;29.20;;;17.90;;
24335;SDS011;33098;52.400;16.880;2022-11-12T15:18:18;31.80;;;17.80;;
24335;SDS011;33098;52.400;16.880;2022-11-12T15:27:02;31.30;;;18.50;;
24335;SDS011;33098;52.400;16.880;2022-11-12T15:30:24;29.10;;;18.40;;
24335;SDS011;33098;52.400;16.880;2022-11-12T15:35:57;33.90;;;19.30;;
24335;SDS011;33098;52.400;16.880;2022-11-12T15:38:46;31.70;;;18.60;;
24335;SDS011;33098;52.400;16.880;2022-11-12T15:41:33;32.00;;;18.60;;
24335;SDS011;33098;52.400;16.880;2022-11-12T15:44:18;27.90;;;18.20;;
24335;SDS011;33098;52.400;16.880;2022-11-12T15:47:04;30.30;;;18.30;;
24335;SDS011;33098;52.400;16.880;2022-11-12T15:49:53;31.60;;;19.50;;
24335;SDS011;33098;52.400;16.880;2022-11-12T15:52:40;30.40;;;18.50;;
24335;SDS011;33098;52.400;16.880;2022-11-12T15:55:25;30.60;;;18.30;;
24335;SDS011;33098;52.400;16.880;2022-11-12T15:58:17;31.80;;;18.20;;
24335;SDS011;33098;52.400;16.880;2022-11-12T16:01:10;28.60;;;18.90;;
24335;SDS011;33098;52.400;16.880;2022-11-12T16:03:58;30.80;;;19.00;;
24335;SDS011;33098;52.400;16.880;2022-11-12T16:06:44;33.20;;;19.30;;
24335;SDS011;33098;52.400;16.880;2022-11-12T16:09:29;33.30;;;20.90;;
24335;SDS011;33098;52.400;16.880;2022-11-12T16:12:14;38.00;;;22.50;;
24335;SDS011;33098;52.400;16.880;2022-11-12T16:15:00;33.60;;;22.60;;
24335;SDS011;33098;52.400;16.880;2022-11-12T16:17:46;32.30;;;21.40;;
24335;SDS011;33098;52.400;16.880;2022-11-12T16:20:33;32.70;;;21.50;;
24335;SDS011;33098;52.400;16.880;2022-11-12T16:23:19;37.90;;;21.70;;
24335;SDS011;33098;52.400;16.880;2022-11-12T16:26:06;30.20;;;19.70;;
24335;SDS011;33098;52.400;16.880;2022-11-12T16:28:53;33.00;;;21.00;;
24335;SDS011;33098;52.400;16.880;2022-11-12T16:31:41;31.60;;;19.90;;
24335;SDS011;33098;52.400;16.880;2022-11-12T16:34:28;31.70;;;20.60;;
24335;SDS011;33098;52.400;16.880;2022-11-12T16:37:13;37.90;;;22.40;;
24335;SDS011;33098;52.400;16.880;2022-11-12T16:40:00;32.30;;;21.60;;
24335;SDS011;33098;52.400;16.880;2022-11-12T16:42:45;37.80;;;23.30;;
24335;SDS011;33098;52.400;16.880;2022-11-12T16:45:31;40.20;;;23.90;;
24335;SDS011;33098;52.400;16.880;2022-11-12T16:48:19;40.90;;;23.70;;
24335;SDS011;33098;52.400;16.880;2022-11-12T16:51:08;40.10;;;24.20;;
24335;SDS011;33098;52.400;16.880;2022-11-12T16:53:59;43.50;;;25.50;;
24335;SDS011;33098;52.400;16.880;2022-11-12T16:56:44;38.80;;;26.20;;
24335;SDS011;33098;52.400;16.880;2022-11-12T16:59:30;41.10;;;24.50;;
24335;SDS011;33098;52.400;16.880;2022-11-12T17:02:16;43.00;;;25.10;;
24335;SDS011;33098;52.400;16.880;2022-11-12T17:05:06;48.60;;;29.70;;
24335;SDS011;33098;52.400;16.880;2022-11-12T17:10:49;46.40;;;28.40;;
24335;SDS011;33098;52.400;16.880;2022-11-12T17:13:35;43.50;;;25.70;;
24335;SDS011;33098;52.400;16.880;2022-11-12T17:16:22;37.40;;;23.20;;
24335;SDS011;33098;52.400;16.880;2022-11-12T17:19:08;38.50;;;23.60;;
24335;SDS011;33098;52.400;16.880;2022-11-12T17:21:54;48.70;;;29.30;;
24335;SDS011;33098;52.400;16.880;2022-11-12T17:24:43;46.40;;;29.10;;
24335;SDS011;33098;52.400;16.880;2022-11-12T17:27:28;47.20;;;28.20;;
24335;SDS011;33098;52.400;16.880;2022-11-12T17:30:14;44.20;;;26.80;;
24335;SDS011;33098;52.400;16.880;2022-11-12T17:32:59;45.70;;;26.90;;
24335;SDS011;33098;52.400;16.880;2022-11-12T17:35:45;45.30;;;26.70;;
24335;SDS011;33098;52.400;16.880;2022-11-12T17:38:30;42.20;;;25.80;;
24335;SDS011;33098;52.400;16.880;2022-11-12T17:41:19;42.00;;;24.30;;
24335;SDS011;33098;52.400;16.880;2022-11-12T17:44:04;40.80;;;25.60;;
24335;SDS011;33098;52.400;16.880;2022-11-12T17:46:51;48.30;;;27.40;;
24335;SDS011;33098;52.400;16.880;2022-11-12T17:49:36;46.30;;;27.00;;
24335;SDS011;33098;52.400;16.880;2022-11-12T17:52:22;49.70;;;27.70;;
24335;SDS011;33098;52.400;16.880;2022-11-12T17:55:08;45.20;;;27.30;;
24335;SDS011;33098;52.400;16.880;2022-11-12T17:57:56;46.50;;;28.30;;
24335;SDS011;33098;52.400;16.880;2022-11-12T18:00:41;56.90;;;29.70;;
24335;SDS011;33098;52.400;16.880;2022-11-12T18:03:29;47.60;;;28.90;;
24335;SDS011;33098;52.400;16.880;2022-11-12T18:06:16;47.60;;;27.00;;